Time;durP1;ratioP1;P1;durP2;ratioP2;P2;SDS_P1;SDS_P2;PMS_P1;PMS_P2;Temp;Humidity;BMP_temperature;BMP_pressure;BME280_temperature;BME280_humidity;BME280_pressure;Samples;Min_cycle;Max_cycle;Signal;HPM_P1;HPM_P2
2024/02/06 00:01:49;;;;;;;11.97;4.73;;;1.50;27.90;;;;;;5015945;28;20266;-70
2024/02/06 00:04:18;;;;;;;8.38;4.55;;;1.50;27.50;;;;;;4997840;28;20631;-70
2024/02/06 00:06:43;;;;;;;9.68;5.10;;;1.50;26.80;;;;;;5015682;28;20177;-70
2024/02/06 00:09:09;;;;;;;5.73;3.97;;;1.50;27.20;;;;;;5015480;28;20655;-70
2024/02/06 00:11:35;;;;;;;7.80;4.97;;;1.50;27.60;;;;;;4997955;28;20985;-70
2024/02/06 00:14:00;;;;;;;6.43;3.87;;;1.60;27.10;;;;;;5015382;28;20708;-70
2024/02/06 00:16:26;;;;;;;11.60;5.37;;;1.70;26.30;;;;;;4997865;28;20421;-70
2024/02/06 00:18:51;;;;;;;8.60;5.30;;;1.70;26.20;;;;;;5015707;28;20185;-70
2024/02/06 00:21:17;;;;;;;8.43;4.60;;;1.70;26.20;;;;;;5015403;28;20824;-70
2024/02/06 00:23:43;;;;;;;11.10;5.73;;;1.70;26.20;;;;;;5015111;28;20204;-70
2024/02/06 00:26:09;;;;;;;8.17;4.87;;;1.70;26.20;;;;;;5014695;28;20243;-70
2024/02/06 00:28:34;;;;;;;15.52;5.22;;;1.60;26.20;;;;;;5015111;28;20181;-70
2024/02/06 00:31:01;;;;;;;6.67;4.23;;;1.70;26.20;;;;;;5015151;28;20184;-70
2024/02/06 00:33:26;;;;;;;14.90;4.95;;;1.70;26.20;;;;;;5014910;28;20749;-70
2024/02/06 00:35:52;;;;;;;13.27;4.33;;;1.80;25.60;;;;;;5015255;28;20172;-70
2024/02/06 00:38:17;;;;;;;13.33;4.30;;;2.00;23.40;;;;;;5014686;28;20188;-70
2024/02/06 00:40:43;;;;;;;6.73;3.60;;;2.10;22.40;;;;;;5015066;28;20178;-72
2024/02/06 00:43:08;;;;;;;7.43;3.53;;;2.10;21.80;;;;;;5014621;28;20588;-70
2024/02/06 00:45:34;;;;;;;6.00;4.27;;;2.20;20.20;;;;;;5015059;28;20187;-70
2024/02/06 00:47:59;;;;;;;13.63;4.00;;;2.20;19.30;;;;;;4996988;28;20721;-70
2024/02/06 00:50:25;;;;;;;9.60;4.30;;;2.30;18.40;;;;;;5014692;28;20178;-70
2024/02/06 00:52:50;;;;;;;9.13;2.90;;;2.20;18.30;;;;;;5014806;28;20260;-69
2024/02/06 00:55:17;;;;;;;7.57;3.90;;;2.30;18.50;;;;;;5014500;28;20234;-69
2024/02/06 00:57:42;;;;;;;7.57;3.60;;;2.30;18.40;;;;;;5014928;28;20186;-69
2024/02/06 01:00:09;;;;;;;9.33;4.80;;;2.30;16.90;;;;;;5014553;28;20303;-70
2024/02/06 01:02:35;;;;;;;15.38;5.05;;;2.40;16.00;;;;;;5014204;28;20193;-69
2024/02/06 01:05:01;;;;;;;6.47;3.83;;;2.40;14.80;;;;;;5014249;28;20204;-70
2024/02/06 01:07:27;;;;;;;10.48;4.20;;;2.40;14.20;;;;;;5013842;28;20210;-69
2024/02/06 01:09:52;;;;;;;5.20;3.40;;;2.40;14.20;;;;;;5014567;28;20671;-69
2024/02/06 01:12:18;;;;;;;5.60;4.00;;;2.40;14.20;;;;;;5014230;28;20183;-69
2024/02/06 01:14:43;;;;;;;7.97;4.67;;;2.40;14.20;;;;;;5142779;22;20730;-70
2024/02/06 01:17:09;;;;;;;7.97;3.50;;;2.40;14.20;;;;;;5033847;28;20166;-69
2024/02/06 01:19:35;;;;;;;13.87;3.90;;;2.40;13.80;;;;;;5033670;28;20178;-67
2024/02/06 01:22:00;;;;;;;6.40;2.70;;;2.30;14.20;;;;;;5032447;28;20541;-68
2024/02/06 01:24:26;;;;;;;5.40;3.50;;;2.30;14.20;;;;;;5033460;28;20446;-69
2024/02/06 01:26:51;;;;;;;7.07;3.10;;;2.30;14.20;;;;;;5033630;28;20189;-69
2024/02/06 01:29:17;;;;;;;9.63;3.43;;;2.20;14.40;;;;;;5033397;28;20189;-68
2024/02/06 01:31:46;;;;;;;9.93;4.00;;;2.20;14.10;;;;;;5032337;28;20251;-70
2024/02/06 01:34:12;;;;;;;8.85;3.65;;;2.20;14.90;;;;;;5033138;28;20207;-69
2024/02/06 01:36:38;;;;;;;6.63;3.28;;;2.20;15.70;;;;;;5033454;28;20187;-69
2024/02/06 01:39:04;;;;;;;5.70;2.50;;;2.30;15.40;;;;;;5033464;28;20175;-70
2024/02/06 01:41:30;;;;;;;7.80;3.50;;;2.30;14.90;;;;;;5032998;28;20437;-69
2024/02/06 01:43:55;;;;;;;10.50;3.53;;;2.30;14.80;;;;;;5033018;28;20455;-70
2024/02/06 01:46:21;;;;;;;7.17;3.63;;;2.30;14.20;;;;;;5032997;28;20453;-69
2024/02/06 01:48:47;;;;;;;7.55;3.83;;;2.40;14.20;;;;;;5032081;28;20279;-71
2024/02/06 01:51:15;;;;;;;8.40;5.70;;;2.40;14.20;;;;;;5032796;28;20613;-72
2024/02/06 01:53:42;;;;;;;4.03;2.85;;;2.40;14.20;;;;;;5032792;28;20941;-70
2024/02/06 01:56:08;;;;;;;7.25;5.07;;;2.30;14.20;;;;;;5033099;28;20181;-69
2024/02/06 01:58:37;;;;;;;4.45;2.90;;;2.30;14.20;;;;;;5032712;28;20249;-69
2024/02/06 02:01:05;;;;;;;7.70;3.33;;;2.30;13.90;;;;;;5032591;28;20592;-70
2024/02/06 02:03:32;;;;;;;12.52;3.40;;;2.30;13.70;;;;;;5032907;28;20521;-70
2024/02/06 02:05:59;;;;;;;8.75;3.60;;;2.30;14.20;;;;;;5032882;28;20447;-72
2024/02/06 02:08:29;;;;;;;6.47;3.50;;;2.20;14.80;;;;;;5032264;28;20257;-70
2024/02/06 02:10:54;;;;;;;11.18;3.90;;;2.10;15.70;;;;;;5032898;28;20171;-70
2024/02/06 02:13:20;;;;;;;7.17;3.67;;;2.10;15.50;;;;;;5032306;28;20208;-70
2024/02/06 02:15:46;;;;;;;4.73;2.77;;;2.20;15.20;;;;;;5031400;28;20774;-69
2024/02/06 02:18:12;;;;;;;5.20;3.40;;;2.20;14.50;;;;;;5031665;28;20792;-69
2024/02/06 02:20:37;;;;;;;5.53;2.80;;;2.20;14.10;;;;;;5031607;28;20532;-70
2024/02/06 02:23:03;;;;;;;8.70;3.67;;;2.10;14.00;;;;;;5032159;28;20177;-69
2024/02/06 02:25:28;;;;;;;9.40;4.10;;;2.10;14.10;;;;;;5032155;28;20216;-70
2024/02/06 02:27:54;;;;;;;5.87;3.27;;;2.00;14.30;;;;;;5032259;28;20183;-69
2024/02/06 02:30:23;;;;;;;4.77;2.73;;;1.90;15.30;;;;;;5032431;28;20178;-70
2024/02/06 02:32:49;;;;;;;6.13;3.05;;;1.90;15.40;;;;;;5030850;28;20202;-69
2024/02/06 02:35:15;;;;;;;5.03;2.93;;;1.90;15.10;;;;;;5032215;28;20280;-69
2024/02/06 02:37:40;;;;;;;6.30;2.30;;;1.90;15.20;;;;;;5032111;28;20174;-68
2024/02/06 02:40:07;;;;;;;7.57;2.73;;;1.90;15.60;;;;;;5030631;28;20191;-68
2024/02/06 02:42:32;;;;;;;4.30;2.75;;;1.90;16.00;;;;;;5047583;28;20186;-68
2024/02/06 02:44:58;;;;;;;3.70;2.90;;;1.90;16.80;;;;;;5031824;28;20193;-69
2024/02/06 02:47:24;;;;;;;5.90;3.20;;;1.90;16.50;;;;;;5031541;28;20176;-68
2024/02/06 02:49:49;;;;;;;4.53;3.07;;;1.70;16.60;;;;;;5047065;28;20177;-69
2024/02/06 02:52:15;;;;;;;8.70;4.73;;;1.70;18.00;;;;;;5032277;28;20189;-68
2024/02/06 02:54:40;;;;;;;4.10;2.33;;;1.70;18.00;;;;;;5031664;28;20208;-69
2024/02/06 02:57:06;;;;;;;6.60;2.60;;;1.70;18.70;;;;;;5031614;28;20407;-69
2024/02/06 02:59:32;;;;;;;4.68;3.15;;;1.70;18.10;;;;;;5032439;28;20195;-69
2024/02/06 03:01:58;;;;;;;8.52;3.00;;;1.60;19.80;;;;;;5032256;28;20178;-70
2024/02/06 03:04:23;;;;;;;6.30;2.80;;;1.70;19.40;;;;;;5031426;28;20689;-70
2024/02/06 03:06:49;;;;;;;5.50;3.00;;;1.70;19.60;;;;;;5031774;28;20596;-70
2024/02/06 03:09:16;;;;;;;5.80;3.53;;;1.70;19.10;;;;;;5031907;28;20171;-68
2024/02/06 03:11:41;;;;;;;6.43;3.65;;;1.70;19.80;;;;;;5032180;28;20658;-69
2024/02/06 03:14:07;;;;;;;5.83;3.70;;;1.70;20.10;;;;;;5031874;28;20230;-69
2024/02/06 03:16:32;;;;;;;4.00;3.37;;;1.60;21.50;;;;;;5031852;28;20179;-69
2024/02/06 03:18:58;;;;;;;5.03;3.53;;;1.60;20.90;;;;;;5031905;28;20191;-69
2024/02/06 03:21:24;;;;;;;6.27;3.30;;;1.60;21.30;;;;;;5031682;28;20185;-70
2024/02/06 03:23:49;;;;;;;3.70;2.60;;;1.60;21.50;;;;;;5030165;28;20242;-67
2024/02/06 03:26:14;;;;;;;3.00;2.30;;;1.50;21.40;;;;;;5031044;28;20181;-69
2024/02/06 03:28:40;;;;;;;6.03;2.10;;;1.50;21.20;;;;;;5032040;28;20187;-68
2024/02/06 03:31:06;;;;;;;4.77;2.67;;;1.40;22.00;;;;;;5034254;28;20188;-68
2024/02/06 03:33:34;;;;;;;3.60;2.77;;;1.40;22.20;;;;;;5035550;28;20199;-68
2024/02/06 03:35:59;;;;;;;7.38;2.90;;;1.30;21.90;;;;;;5035177;28;20179;-68
2024/02/06 03:38:25;;;;;;;4.30;2.40;;;1.20;22.60;;;;;;5036740;28;20167;-68
2024/02/06 03:40:51;;;;;;;5.93;2.97;;;1.10;23.80;;;;;;5034840;28;20441;-68
2024/02/06 03:43:16;;;;;;;7.73;2.70;;;1.10;22.90;;;;;;5035993;28;20195;-68
2024/02/06 03:45:42;;;;;;;8.17;3.60;;;1.10;24.00;;;;;;5034400;28;20267;-68
2024/02/06 03:48:07;;;;;;;4.67;2.50;;;1.00;23.40;;;;;;5035339;28;20677;-68
2024/02/06 03:50:33;;;;;;;5.67;3.20;;;1.00;24.30;;;;;;5035518;28;20200;-67
2024/02/06 03:52:58;;;;;;;4.50;3.00;;;1.00;23.60;;;;;;5035485;28;20186;-68
2024/02/06 03:55:24;;;;;;;6.73;3.07;;;1.00;24.50;;;;;;5035371;28;20566;-68
2024/02/06 03:57:49;;;;;;;6.13;3.53;;;0.90;24.60;;;;;;5034785;28;20681;-68
2024/02/06 04:00:15;;;;;;;6.17;3.43;;;0.90;24.80;;;;;;5035529;28;20189;-68
2024/02/06 04:02:41;;;;;;;5.63;4.07;;;0.90;24.30;;;;;;5033639;28;20179;-68
2024/02/06 04:05:06;;;;;;;7.90;2.73;;;0.90;25.30;;;;;;5033589;28;20257;-68
2024/02/06 04:07:32;;;;;;;7.87;3.60;;;0.90;25.40;;;;;;5034699;28;20659;-69
2024/02/06 04:09:57;;;;;;;6.07;2.80;;;0.80;24.90;;;;;;5035150;28;20183;-68
2024/02/06 04:12:23;;;;;;;5.00;3.53;;;0.80;25.70;;;;;;5035160;28;20274;-68
2024/02/06 04:14:48;;;;;;;6.80;3.77;;;0.80;26.20;;;;;;5049554;28;20306;-68
2024/02/06 04:17:14;;;;;;;5.90;3.83;;;0.80;25.70;;;;;;5034725;28;20182;-68
2024/02/06 04:19:39;;;;;;;6.90;3.37;;;0.80;25.80;;;;;;5034691;28;20219;-70
2024/02/06 04:22:05;;;;;;;11.90;3.47;;;0.90;26.50;;;;;;5033596;28;20278;-68
2024/02/06 04:24:31;;;;;;;7.07;3.57;;;0.90;25.80;;;;;;5034834;28;20283;-68
2024/02/06 04:26:56;;;;;;;11.13;4.03;;;0.90;26.50;;;;;;5032705;28;20195;-68
2024/02/06 04:29:22;;;;;;;5.33;3.93;;;0.90;26.40;;;;;;5034872;28;20547;-68
2024/02/06 04:31:48;;;;;;;5.70;4.30;;;0.90;26.60;;;;;;5034696;28;20184;-68
2024/02/06 04:34:13;;;;;;;8.15;3.70;;;0.90;26.20;;;;;;5034134;28;20207;-69
2024/02/06 04:36:39;;;;;;;7.87;4.20;;;0.90;26.30;;;;;;5034268;28;20186;-68
2024/02/06 04:39:08;;;;;;;5.90;3.80;;;0.90;25.70;;;;;;5034305;28;20192;-69
2024/02/06 04:41:35;;;;;;;9.48;5.00;;;0.90;26.60;;;;;;5033465;28;20432;-68
2024/02/06 04:44:01;;;;;;;14.35;5.93;;;0.80;26.90;;;;;;5034284;28;20198;-69
2024/02/06 04:46:26;;;;;;;9.87;5.40;;;0.70;27.30;;;;;;5032430;28;20557;-69
2024/02/06 04:48:52;;;;;;;9.83;6.03;;;0.80;30.80;;;;;;5034253;28;20754;-68
2024/02/06 04:51:18;;;;;;;12.23;6.47;;;0.80;30.80;;;;;;5034218;28;20669;-68
2024/02/06 04:53:43;;;;;;;11.60;7.33;;;0.70;32.50;;;;;;5033055;28;20781;-69
2024/02/06 04:56:09;;;;;;;11.10;7.10;;;0.80;31.60;;;;;;5033105;28;20202;-68
2024/02/06 04:58:35;;;;;;;9.55;6.40;;;0.70;32.70;;;;;;5034167;28;20179;-70
2024/02/06 05:01:01;;;;;;;11.87;9.33;;;0.70;33.40;;;;;;5034047;28;20184;-69
2024/02/06 05:03:26;;;;;;;14.07;9.43;;;0.80;34.10;;;;;;5033858;28;20479;-70
2024/02/06 05:05:52;;;;;;;14.10;8.20;;;0.70;34.50;;;;;;5034023;28;20595;-70
2024/02/06 05:08:17;;;;;;;14.47;8.03;;;0.70;34.50;;;;;;5034064;28;20182;-68
2024/02/06 05:10:47;;;;;;;12.40;8.27;;;0.70;34.50;;;;;;5049077;28;20730;-68
2024/02/06 05:13:13;;;;;;;12.95;7.63;;;0.60;34.50;;;;;;5033443;28;20176;-68
2024/02/06 05:15:38;;;;;;;15.03;7.17;;;0.50;34.40;;;;;;5031832;28;20207;-69
2024/02/06 05:18:04;;;;;;;17.20;11.43;;;0.50;34.40;;;;;;5033934;28;20417;-69
2024/02/06 05:20:29;;;;;;;13.47;8.80;;;0.50;34.40;;;;;;5032777;28;20209;-69
2024/02/06 05:22:55;;;;;;;15.23;9.47;;;0.50;35.80;;;;;;5032504;28;20188;-68
2024/02/06 05:25:21;;;;;;;15.67;9.80;;;0.40;35.60;;;;;;5031889;28;20181;-69
2024/02/06 05:27:46;;;;;;;21.97;11.73;;;0.40;36.50;;;;;;5033351;28;20255;-69
2024/02/06 05:30:12;;;;;;;19.53;12.30;;;0.40;36.50;;;;;;5033651;28;20291;-68
2024/02/06 05:32:38;;;;;;;18.15;10.55;;;0.40;37.50;;;;;;5033881;28;20547;-70
2024/02/06 05:35:04;;;;;;;18.33;11.90;;;0.40;38.00;;;;;;5033583;28;20241;-69
2024/02/06 05:37:30;;;;;;;21.20;12.18;;;0.40;38.60;;;;;;5032779;28;20191;-69
2024/02/06 05:39:56;;;;;;;18.73;12.18;;;0.40;39.50;;;;;;5033552;28;20170;-68
2024/02/06 05:42:22;;;;;;;17.27;11.80;;;0.30;38.50;;;;;;5034584;28;20598;-69
2024/02/06 05:44:47;;;;;;;16.50;10.57;;;0.30;39.20;;;;;;5033487;28;20442;-69
2024/02/06 05:47:13;;;;;;;23.60;12.73;;;0.30;40.10;;;;;;5035486;28;20202;-70
2024/02/06 05:49:39;;;;;;;17.63;11.83;;;0.30;39.90;;;;;;5032416;28;20191;-68
2024/02/06 05:52:05;;;;;;;17.87;12.53;;;0.30;40.00;;;;;;5033813;28;20171;-68
2024/02/06 05:54:30;;;;;;;20.00;10.53;;;0.30;40.60;;;;;;5033082;28;20678;-68
2024/02/06 05:56:56;;;;;;;13.33;8.97;;;0.30;40.90;;;;;;5032075;28;20410;-68
2024/02/06 05:59:24;;;;;;;16.13;10.83;;;0.40;42.20;;;;;;5034549;28;20258;-69
2024/02/06 06:01:54;;;;;;;16.63;10.57;;;0.40;41.30;;;;;;5034340;28;20180;-68
2024/02/06 06:04:20;;;;;;;16.38;11.10;;;0.40;41.20;;;;;;5033590;28;20273;-67
2024/02/06 06:06:45;;;;;;;14.73;10.60;;;0.50;41.50;;;;;;5033266;28;20190;-67
2024/02/06 06:09:11;;;;;;;12.37;9.10;;;0.60;42.80;;;;;;5033757;28;20630;-67
2024/02/06 06:11:36;;;;;;;12.83;10.03;;;0.60;43.10;;;;;;5033206;28;20665;-68
2024/02/06 06:14:02;;;;;;;14.67;9.97;;;0.60;42.20;;;;;;5033007;28;20214;-69
2024/02/06 06:16:27;;;;;;;16.90;8.87;;;0.60;41.20;;;;;;5032730;28;20175;-68
2024/02/06 06:18:53;;;;;;;14.83;10.23;;;0.60;42.10;;;;;;5033173;28;20168;-67
2024/02/06 06:21:20;;;;;;;15.77;9.70;;;0.70;41.10;;;;;;5032683;28;20201;-67
2024/02/06 06:23:45;;;;;;;15.10;9.63;;;0.60;41.40;;;;;;5032615;28;20199;-67
2024/02/06 06:26:10;;;;;;;15.23;9.40;;;0.60;41.80;;;;;;5033391;28;20190;-67
2024/02/06 06:28:36;;;;;;;16.50;7.60;;;0.70;41.50;;;;;;5032730;28;20202;-68
2024/02/06 06:31:01;;;;;;;13.83;7.73;;;0.70;41.00;;;;;;5032933;28;20171;-67
2024/02/06 06:33:27;;;;;;;12.67;9.10;;;0.70;41.50;;;;;;5032909;28;20245;-68
2024/02/06 06:35:53;;;;;;;13.53;8.70;;;0.70;41.00;;;;;;5032783;28;20171;-67
2024/02/06 06:38:18;;;;;;;23.30;9.33;;;0.70;40.10;;;;;;5032853;28;20990;-68
2024/02/06 06:40:44;;;;;;;16.63;9.60;;;0.80;41.20;;;;;;5032541;28;20577;-68
2024/02/06 06:43:10;;;;;;;13.60;9.80;;;0.90;42.90;;;;;;5032364;28;20187;-68
2024/02/06 06:45:36;;;;;;;17.17;9.23;;;1.00;42.90;;;;;;5032415;28;20175;-68
2024/02/06 06:48:02;;;;;;;9.60;7.03;;;1.10;44.20;;;;;;5033286;28;20174;-70
2024/02/06 06:50:27;;;;;;;14.27;8.90;;;1.20;43.40;;;;;;5032443;28;20191;-69
2024/02/06 06:52:53;;;;;;;16.90;10.43;;;1.30;42.80;;;;;;5032473;28;20186;-68
2024/02/06 06:55:19;;;;;;;12.70;7.93;;;1.30;42.20;;;;;;5032148;28;20258;-68
2024/02/06 06:57:44;;;;;;;14.10;8.60;;;1.50;43.40;;;;;;5033267;28;20176;-68
2024/02/06 07:00:12;;;;;;;14.17;7.90;;;1.60;42.80;;;;;;5032774;28;20171;-69
2024/02/06 07:02:38;;;;;;;10.50;7.15;;;1.70;42.00;;;;;;5031465;28;20564;-68
2024/02/06 07:05:06;;;;;;;9.30;7.90;;;1.70;41.40;;;;;;5032047;28;20543;-68
2024/02/06 07:07:32;;;;;;;14.77;7.10;;;1.80;40.50;;;;;;5032017;28;20714;-69
2024/02/06 07:09:58;;;;;;;9.93;7.13;;;1.90;40.70;;;;;;5032122;28;20271;-68
2024/02/06 07:12:25;;;;;;;8.57;6.10;;;2.10;39.40;;;;;;5032854;28;20456;-69
2024/02/06 07:14:50;;;;;;;11.38;7.38;;;2.30;39.30;;;;;;5032040;28;20552;-68
2024/02/06 07:17:17;;;;;;;13.32;8.05;;;2.30;38.00;;;;;;5031599;28;20232;-68
2024/02/06 07:19:43;;;;;;;15.20;7.47;;;2.50;36.50;;;;;;5031491;28;20244;-68
2024/02/06 07:22:09;;;;;;;12.55;8.50;;;2.60;36.10;;;;;;5031658;28;20401;-68
2024/02/06 07:24:35;;;;;;;15.70;7.47;;;2.80;35.10;;;;;;5031573;28;20274;-67
2024/02/06 07:27:00;;;;;;;8.47;6.50;;;2.90;31.80;;;;;;5031441;28;20264;-68
2024/02/06 07:29:26;;;;;;;10.50;7.30;;;3.20;30.60;;;;;;5031387;28;20257;-68
2024/02/06 07:31:52;;;;;;;10.93;5.70;;;3.40;29.60;;;;;;5031906;28;20190;-68
2024/02/06 07:34:21;;;;;;;10.63;6.50;;;3.60;25.70;;;;;;5031727;28;21045;-68
2024/02/06 07:36:47;;;;;;;11.55;6.90;;;3.80;23.00;;;;;;5031127;28;20202;-68
2024/02/06 07:39:12;;;;;;;12.03;7.27;;;4.10;22.60;;;;;;5030969;28;20204;-68
2024/02/06 07:41:38;;;;;;;13.77;7.50;;;4.20;18.90;;;;;;5024401;28;20430;-67
2024/02/06 07:44:04;;;;;;;12.57;6.30;;;4.30;18.90;;;;;;5026774;28;20880;-69
2024/02/06 07:46:30;;;;;;;12.00;6.83;;;4.50;17.50;;;;;;5026861;28;20197;-68
2024/02/06 07:48:56;;;;;;;12.70;6.93;;;4.70;15.70;;;;;;5026866;28;20428;-68
2024/02/06 07:51:22;;;;;;;14.90;7.20;;;4.60;15.20;;;;;;5027106;28;20420;-69
2024/02/06 07:53:49;;;;;;;11.63;7.73;;;4.70;15.30;;;;;;5019072;28;20471;-69
2024/02/06 07:56:15;;;;;;;13.53;7.13;;;4.70;15.40;;;;;;5021790;28;20528;-69
2024/02/06 07:58:41;;;;;;;12.47;7.63;;;4.80;15.80;;;;;;5017941;28;20426;-68
2024/02/06 08:01:06;;;;;;;11.37;7.50;;;4.90;15.80;;;;;;5028061;28;20421;-68
2024/02/06 08:03:32;;;;;;;15.73;9.53;;;4.90;14.30;;;;;;5027515;28;20217;-68
2024/02/06 08:05:58;;;;;;;11.07;6.30;;;5.00;14.70;;;;;;5027615;28;20549;-68
2024/02/06 08:08:24;;;;;;;11.23;6.90;;;5.10;15.00;;;;;;5025929;28;20230;-67
2024/02/06 08:10:50;;;;;;;11.13;6.83;;;5.20;13.90;;;;;;5027523;28;20175;-67
2024/02/06 08:13:16;;;;;;;11.67;6.33;;;5.20;11.70;;;;;;5027305;28;20508;-67
2024/02/06 08:15:41;;;;;;;14.57;7.30;;;5.20;11.80;;;;;;5027872;28;20577;-68
2024/02/06 08:18:07;;;;;;;9.93;6.57;;;5.30;12.70;;;;;;5029674;28;20198;-68
2024/02/06 08:20:33;;;;;;;15.10;6.33;;;5.40;11.90;;;;;;5031240;28;20270;-68
2024/02/06 08:22:59;;;;;;;18.93;5.87;;;5.50;12.10;;;;;;5031285;28;20426;-68
2024/02/06 08:25:25;;;;;;;10.97;6.30;;;5.60;9.60;;;;;;5030758;28;20201;-68
2024/02/06 08:27:51;;;;;;;9.40;5.20;;;5.50;10.10;;;;;;5031165;28;20588;-68
2024/02/06 08:30:17;;;;;;;8.03;5.40;;;5.60;10.30;;;;;;5028764;28;20437;-68
2024/02/06 08:32:43;;;;;;;9.77;5.43;;;5.60;9.60;;;;;;5031581;28;20418;-68
2024/02/06 08:35:09;;;;;;;7.87;5.87;;;5.60;9.20;;;;;;5032840;28;20797;-68
2024/02/06 08:37:35;;;;;;;13.10;5.80;;;5.60;9.60;;;;;;5032838;28;20519;-67
2024/02/06 08:40:01;;;;;;;8.27;4.83;;;5.70;9.10;;;;;;5033958;28;20191;-68
2024/02/06 08:42:26;;;;;;;9.77;5.00;;;5.70;7.70;;;;;;5033258;28;20614;-68
2024/02/06 08:44:52;;;;;;;9.17;5.20;;;5.70;8.30;;;;;;5032107;28;20441;-67
2024/02/06 08:47:17;;;;;;;11.33;4.80;;;5.80;9.00;;;;;;5033006;28;20218;-68
2024/02/06 08:49:43;;;;;;;8.37;4.43;;;5.90;7.80;;;;;;5034007;28;20521;-67
2024/02/06 08:52:08;;;;;;;8.30;4.50;;;5.90;7.80;;;;;;5034045;28;20198;-67
2024/02/06 08:54:34;;;;;;;10.07;4.90;;;6.00;7.90;;;;;;5039716;28;20202;-67
2024/02/06 08:56:59;;;;;;;8.13;5.37;;;6.10;7.20;;;;;;5033901;28;20191;-67
2024/02/06 08:59:25;;;;;;;7.27;4.40;;;6.20;6.20;;;;;;5034458;28;20179;-68
2024/02/06 09:01:51;;;;;;;6.07;4.20;;;6.20;5.30;;;;;;5032663;28;20184;-68
2024/02/06 09:04:16;;;;;;;11.63;4.30;;;6.20;5.00;;;;;;5033945;28;20196;-68
2024/02/06 09:06:42;;;;;;;9.87;3.97;;;6.20;5.30;;;;;;5033847;28;20187;-68
2024/02/06 09:09:09;;;;;;;6.77;4.47;;;6.20;4.90;;;;;;5034476;28;20184;-68
2024/02/06 09:11:34;;;;;;;5.23;3.43;;;6.30;4.40;;;;;;5033141;28;20258;-69
2024/02/06 09:14:06;;;;;;;15.50;4.27;;;6.30;4.00;;;;;;5033713;28;20520;-69
2024/02/06 09:16:31;;;;;;;5.87;3.70;;;6.40;4.30;;;;;;5033257;28;20186;-68
2024/02/06 09:19:09;;;;;;;4.60;3.03;;;6.50;3.70;;;;;;5033174;28;20419;-69
2024/02/06 09:21:36;;;;;;;8.90;3.37;;;6.50;3.40;;;;;;5033136;28;20218;-68
2024/02/06 09:24:02;;;;;;;5.00;3.23;;;6.50;3.50;;;;;;5033445;28;20511;-69
2024/02/06 09:26:27;;;;;;;5.10;3.13;;;6.60;3.80;;;;;;5033149;28;20446;-68
2024/02/06 09:28:53;;;;;;;7.60;3.60;;;6.70;2.80;;;;;;5032837;28;20508;-68
2024/02/06 09:31:19;;;;;;;5.77;3.70;;;7.00;2.50;;;;;;5033129;28;20406;-67
2024/02/06 09:33:45;;;;;;;7.87;3.37;;;7.00;1.10;;;;;;5032720;28;20723;-68
2024/02/06 09:36:10;;;;;;;6.53;3.37;;;7.10;1.10;;;;;;5033195;28;20413;-68
2024/02/06 09:38:37;;;;;;;4.80;3.30;;;7.40;1.00;;;;;;5032834;28;20195;-68
2024/02/06 09:41:05;;;;;;;7.73;3.50;;;7.50;1.00;;;;;;5033038;28;20169;-69
2024/02/06 09:43:36;;;;;;;4.67;2.50;;;7.60;1.00;;;;;;5032919;28;20495;-68
2024/02/06 09:46:14;;;;;;;3.60;2.43;;;7.80;1.00;;;;;;5033387;28;20450;-69
2024/02/06 09:48:39;;;;;;;2.93;1.83;;;8.00;1.00;;;;;;5033079;28;20504;-67
2024/02/06 09:51:06;;;;;;;5.73;2.97;;;8.20;1.00;;;;;;5033043;28;20925;-68
2024/02/06 09:53:35;;;;;;;4.53;2.40;;;8.20;1.00;;;;;;5032727;28;20186;-69
2024/02/06 09:56:01;;;;;;;5.50;2.07;;;7.90;1.00;;;;;;5032901;28;20523;-67
2024/02/06 09:58:27;;;;;;;3.60;2.10;;;8.20;1.00;;;;;;5032437;28;20471;-71
2024/02/06 10:00:53;;;;;;;3.93;2.93;;;8.30;1.00;;;;;;5032398;28;20447;-69
2024/02/06 10:03:28;;;;;;;2.70;2.07;;;8.20;1.00;;;;;;5032685;28;20441;-69
2024/02/06 10:06:11;;;;;;;3.17;1.57;;;8.20;1.00;;;;;;5032772;28;20429;-70
2024/02/06 10:08:37;;;;;;;2.93;2.00;;;8.30;1.00;;;;;;5032823;28;20425;-68
2024/02/06 10:11:13;;;;;;;4.97;2.40;;;8.40;1.00;;;;;;5032577;28;20417;-70
2024/02/06 10:13:41;;;;;;;3.73;2.90;;;8.60;1.00;;;;;;5032236;28;20448;-69
2024/02/06 10:16:12;;;;;;;5.10;2.20;;;8.70;1.00;;;;;;5031984;28;20919;-69
2024/02/06 10:18:59;;;;;;;4.43;2.80;;;8.70;1.00;;;;;;5026984;28;20465;-69
2024/02/06 10:21:28;;;;;;;6.63;1.73;;;8.90;1.00;;;;;;5026854;28;20823;-68
2024/02/06 10:24:01;;;;;;;3.63;2.23;;;9.10;1.00;;;;;;5028229;28;20441;-69
2024/02/06 10:26:27;;;;;;;5.27;2.70;;;9.00;1.00;;;;;;5028605;28;20417;-68
2024/02/06 10:29:23;;;;;;;6.27;1.70;;;8.70;1.00;;;;;;5027706;28;20791;-70
2024/02/06 10:31:51;;;;;;;4.93;2.60;;;8.60;1.00;;;;;;5021013;28;20222;-68
2024/02/06 10:34:16;;;;;;;4.13;2.33;;;8.70;1.00;;;;;;5030206;28;20468;-68
2024/02/06 10:36:42;;;;;;;4.07;2.80;;;8.80;1.00;;;;;;5031749;28;20437;-68
2024/02/06 10:39:17;;;;;;;3.80;1.80;;;8.70;1.00;;;;;;5031328;28;20183;-69
2024/02/06 10:41:44;;;;;;;3.63;2.00;;;8.80;1.00;;;;;;5031752;28;20576;-68
2024/02/06 10:44:11;;;;;;;3.87;2.17;;;8.80;1.00;;;;;;5031599;28;20447;-68
2024/02/06 10:46:39;;;;;;;3.10;1.47;;;8.80;1.00;;;;;;5031375;28;20428;-68
2024/02/06 10:49:05;;;;;;;2.93;1.60;;;9.00;1.00;;;;;;5028141;28;20806;-69
2024/02/06 10:51:30;;;;;;;3.43;1.60;;;9.00;1.00;;;;;;5028428;28;20488;-68
2024/02/06 10:54:19;;;;;;;2.53;1.27;;;8.90;1.00;;;;;;5047981;28;20229;-68
2024/02/06 11:00:15;;;;;;;2.23;1.07;;;8.80;1.00;;;;;;4999162;28;20436;-68
2024/02/06 11:02:45;;;;;;;4.03;2.20;;;9.00;1.00;;;;;;5011993;28;20390;-69
2024/02/06 11:05:43;;;;;;;2.30;1.30;;;9.10;1.00;;;;;;5011818;28;20485;-70
2024/02/06 11:08:13;;;;;;;3.03;1.60;;;9.40;1.00;;;;;;5011762;28;20470;-68
2024/02/06 11:10:55;;;;;;;4.43;1.57;;;9.40;1.00;;;;;;5031418;28;20838;-69
2024/02/06 11:13:38;;;;;;;2.77;1.60;;;9.40;1.00;;;;;;5030929;28;20466;-69
2024/02/06 11:16:09;;;;;;;3.33;1.80;;;9.40;1.00;;;;;;5031229;28;20429;-69
2024/02/06 11:18:49;;;;;;;3.40;1.53;;;9.40;1.00;;;;;;5031387;28;20828;-68
2024/02/06 11:21:19;;;;;;;3.87;2.30;;;9.30;1.00;;;;;;5031266;28;20524;-67
2024/02/06 11:23:47;;;;;;;3.23;1.60;;;9.20;1.00;;;;;;5031817;28;20971;-68
2024/02/06 11:26:13;;;;;;;4.73;1.60;;;9.20;1.00;;;;;;5031012;28;20412;-68
2024/02/06 11:28:39;;;;;;;4.47;1.70;;;9.10;1.00;;;;;;5032335;28;20924;-69
2024/02/06 11:31:05;;;;;;;3.80;2.07;;;9.30;1.00;;;;;;5032637;28;20405;-69
2024/02/06 11:33:32;;;;;;;3.40;1.60;;;9.30;1.00;;;;;;5033860;28;20430;-66
2024/02/06 11:36:08;;;;;;;3.53;1.40;;;9.40;1.00;;;;;;5033119;28;20468;-66
2024/02/06 11:38:34;;;;;;;6.67;1.70;;;9.20;1.00;;;;;;5033094;28;20437;-67
2024/02/06 11:41:14;;;;;;;4.20;1.73;;;9.30;1.00;;;;;;5032978;28;20414;-66
2024/02/06 11:43:40;;;;;;;3.20;1.47;;;9.40;1.00;;;;;;5030557;28;20601;-66
2024/02/06 11:46:05;;;;;;;4.10;1.83;;;9.40;1.00;;;;;;5032526;28;20417;-69
2024/02/06 11:48:31;;;;;;;8.53;2.50;;;9.20;1.00;;;;;;5029858;28;20179;-67
2024/02/06 11:50:56;;;;;;;2.90;1.60;;;9.20;1.00;;;;;;5031937;28;20236;-68
2024/02/06 11:53:26;;;;;;;2.20;1.00;;;9.30;1.00;;;;;;5034768;28;20211;-68
2024/02/06 11:55:55;;;;;;;9.33;1.77;;;9.30;1.00;;;;;;5016888;28;20223;-67
2024/02/06 11:58:22;;;;;;;11.80;2.43;;;9.20;1.00;;;;;;5014988;28;21040;-68
2024/02/06 12:00:52;;;;;;;5.47;2.30;;;9.20;1.00;;;;;;5013802;28;20430;-68
2024/02/06 12:03:17;;;;;;;3.80;1.70;;;9.50;1.00;;;;;;5015112;28;20812;-67
2024/02/06 12:05:43;;;;;;;2.63;1.50;;;9.50;1.00;;;;;;5013599;28;20453;-69
2024/02/06 12:08:12;;;;;;;5.80;2.07;;;9.30;1.00;;;;;;5033195;28;20421;-69
2024/02/06 12:10:38;;;;;;;3.30;1.47;;;9.30;1.00;;;;;;5033139;28;20631;-69
2024/02/06 12:13:11;;;;;;;2.97;1.87;;;9.20;1.00;;;;;;5014580;28;20429;-68
2024/02/06 12:15:38;;;;;;;2.23;1.17;;;9.20;1.00;;;;;;5014776;28;20477;-67
2024/02/06 12:18:08;;;;;;;4.17;1.47;;;9.20;1.00;;;;;;5014599;28;20407;-67
2024/02/06 12:20:37;;;;;;;4.90;2.23;;;9.20;1.00;;;;;;5028853;28;20445;-67
2024/02/06 12:23:06;;;;;;;2.63;1.30;;;9.30;1.00;;;;;;5015013;28;20736;-68
2024/02/06 12:25:38;;;;;;;3.67;1.83;;;9.50;1.00;;;;;;5014865;28;20446;-71
2024/02/06 12:28:23;;;;;;;4.33;1.33;;;9.40;1.00;;;;;;5019224;28;20438;-68
2024/02/06 12:31:00;;;;;;;6.17;1.47;;;9.40;1.00;;;;;;5014643;28;20421;-68
2024/02/06 12:33:26;;;;;;;2.63;1.40;;;9.40;1.00;;;;;;5029084;28;20433;-68
2024/02/06 12:35:54;;;;;;;3.90;1.67;;;9.40;1.00;;;;;;5034133;28;21041;-68
2024/02/06 12:38:20;;;;;;;3.93;1.53;;;9.40;1.00;;;;;;5034445;28;20781;-67
2024/02/06 12:40:46;;;;;;;5.70;1.77;;;9.30;1.00;;;;;;5034317;28;20406;-67
2024/02/06 12:43:12;;;;;;;6.90;2.30;;;9.40;1.00;;;;;;5033992;28;20175;-67
2024/02/06 12:45:39;;;;;;;4.93;2.20;;;9.20;1.00;;;;;;5034181;28;20418;-67
2024/02/06 12:48:05;;;;;;;7.10;2.07;;;9.20;1.00;;;;;;5032973;28;20422;-69
2024/02/06 12:50:31;;;;;;;3.40;1.87;;;9.10;1.00;;;;;;5034758;28;20791;-68
2024/02/06 12:53:00;;;;;;;3.93;1.70;;;9.00;1.00;;;;;;5034099;28;20411;-74
2024/02/06 12:55:27;;;;;;;2.50;1.70;;;9.10;1.00;;;;;;5032055;28;20280;-69
2024/02/06 12:57:54;;;;;;;4.50;2.27;;;9.10;1.00;;;;;;5035679;28;20441;-68